sensor_id;sensor_type;location;lat;lon;timestamp;pressure;altitude;pressure_sealevel;temperature;humidity
76352;BME280;65179;47.786;19.138;2022-12-17T01:29:02;99872.78;;;0.67;91.38
76352;BME280;65179;47.786;19.138;2022-12-17T01:31:46;99891.81;;;0.72;91.58
76352;BME280;65179;47.786;19.138;2022-12-17T01:34:30;99897.66;;;0.68;91.58
76352;BME280;65179;47.786;19.138;2022-12-17T01:37:14;99896.31;;;0.72;91.87
76352;BME280;65179;47.786;19.138;2022-12-17T01:39:58;99900.00;;;0.71;91.64
76352;BME280;65179;47.786;19.138;2022-12-17T01:42:44;99906.34;;;0.70;91.57
76352;BME280;65179;47.786;19.138;2022-12-17T01:45:42;99910.19;;;0.67;91.44
76352;BME280;65179;47.786;19.138;2022-12-17T01:48:42;99902.00;;;0.69;91.72
76352;BME280;65179;47.786;19.138;2022-12-17T01:51:28;99900.34;;;0.68;91.57
76352;BME280;65179;47.786;19.138;2022-12-17T01:54:13;99902.34;;;0.66;91.66
76352;BME280;65179;47.786;19.138;2022-12-17T01:56:58;99912.03;;;0.67;91.74
76352;BME280;65179;47.786;19.138;2022-12-17T01:59:56;99906.03;;;0.65;91.60
76352;BME280;65179;47.786;19.138;2022-12-17T02:02:42;99899.31;;;0.61;91.54
76352;BME280;65179;47.786;19.138;2022-12-17T02:08:53;99901.50;;;0.65;91.59
76352;BME280;65179;47.786;19.138;2022-12-17T02:14:39;99914.19;;;0.63;91.43
76352;BME280;65179;47.786;19.138;2022-12-17T02:17:30;99918.03;;;0.61;91.57
76352;BME280;65179;47.786;19.138;2022-12-17T02:20:31;99924.56;;;0.58;91.41
76352;BME280;65179;47.786;19.138;2022-12-17T02:23:35;99927.25;;;0.58;91.52
76352;BME280;65179;47.786;19.138;2022-12-17T02:26:43;99922.03;;;0.57;91.49
76352;BME280;65179;47.786;19.138;2022-12-17T02:29:41;99923.72;;;0.58;91.52
76352;BME280;65179;47.786;19.138;2022-12-17T02:32:27;99919.72;;;0.54;91.51
76352;BME280;65179;47.786;19.138;2022-12-17T02:35:14;99916.72;;;0.49;91.52
76352;BME280;65179;47.786;19.138;2022-12-17T02:37:58;99939.25;;;0.54;91.63
76352;BME280;65179;47.786;19.138;2022-12-17T02:40:43;99937.75;;;0.52;91.49
76352;BME280;65179;47.786;19.138;2022-12-17T02:43:29;99942.59;;;0.48;91.40
76352;BME280;65179;47.786;19.138;2022-12-17T02:46:14;99933.59;;;0.49;91.25
76352;BME280;65179;47.786;19.138;2022-12-17T02:48:58;99930.06;;;0.49;91.32
76352;BME280;65179;47.786;19.138;2022-12-17T02:51:43;99929.91;;;0.50;91.43
76352;BME280;65179;47.786;19.138;2022-12-17T02:54:29;99935.25;;;0.42;91.15
76352;BME280;65179;47.786;19.138;2022-12-17T02:57:13;99936.75;;;0.45;91.20
76352;BME280;65179;47.786;19.138;2022-12-17T02:59:57;99943.91;;;0.44;91.25
76352;BME280;65179;47.786;19.138;2022-12-17T03:02:41;99940.25;;;0.45;91.30
76352;BME280;65179;47.786;19.138;2022-12-17T03:05:25;99945.75;;;0.44;91.22
76352;BME280;65179;47.786;19.138;2022-12-17T03:08:09;99943.44;;;0.41;91.12
76352;BME280;65179;47.786;19.138;2022-12-17T03:10:53;99947.09;;;0.40;91.13
76352;BME280;65179;47.786;19.138;2022-12-17T03:13:37;99953.09;;;0.42;91.44
76352;BME280;65179;47.786;19.138;2022-12-17T03:16:21;99948.09;;;0.39;91.24
76352;BME280;65179;47.786;19.138;2022-12-17T03:19:05;99956.78;;;0.41;91.13
76352;BME280;65179;47.786;19.138;2022-12-17T03:21:49;99957.59;;;0.41;91.04
76352;BME280;65179;47.786;19.138;2022-12-17T03:24:33;99953.28;;;0.32;91.02
76352;BME280;65179;47.786;19.138;2022-12-17T03:27:18;99982.16;;;0.37;91.18
76352;BME280;65179;47.786;19.138;2022-12-17T03:30:02;99973.44;;;0.35;91.09
76352;BME280;65179;47.786;19.138;2022-12-17T03:32:46;99967.28;;;0.34;91.00
76352;BME280;65179;47.786;19.138;2022-12-17T03:35:30;99958.62;;;0.32;90.72
76352;BME280;65179;47.786;19.138;2022-12-17T03:38:14;99948.25;;;0.29;90.61
76352;BME280;65179;47.786;19.138;2022-12-17T03:40:58;99964.28;;;0.29;90.76
76352;BME280;65179;47.786;19.138;2022-12-17T03:43:42;99957.59;;;0.25;90.58
76352;BME280;65179;47.786;19.138;2022-12-17T03:46:26;99954.25;;;0.23;90.41
76352;BME280;65179;47.786;19.138;2022-12-17T03:49:11;99963.78;;;0.26;90.36
76352;BME280;65179;47.786;19.138;2022-12-17T03:51:55;99973.13;;;0.22;90.21
76352;BME280;65179;47.786;19.138;2022-12-17T03:54:39;99973.94;;;0.22;89.88
76352;BME280;65179;47.786;19.138;2022-12-17T03:57:23;99984.28;;;0.17;89.79
76352;BME280;65179;47.786;19.138;2022-12-17T04:00:07;99985.78;;;0.20;89.75
76352;BME280;65179;47.786;19.138;2022-12-17T04:02:52;99984.97;;;0.19;89.54
76352;BME280;65179;47.786;19.138;2022-12-17T04:05:36;99993.47;;;0.15;89.37
76352;BME280;65179;47.786;19.138;2022-12-17T04:08:20;99992.94;;;0.11;88.84
76352;BME280;65179;47.786;19.138;2022-12-17T04:11:04;99999.78;;;0.06;88.66
76352;BME280;65179;47.786;19.138;2022-12-17T04:13:48;100004.78;;;0.09;88.65
76352;BME280;65179;47.786;19.138;2022-12-17T04:16:32;100001.41;;;0.07;89.03
76352;BME280;65179;47.786;19.138;2022-12-17T04:19:17;100003.41;;;0.05;88.69
76352;BME280;65179;47.786;19.138;2022-12-17T04:22:01;100009.09;;;0.02;88.13
76352;BME280;65179;47.786;19.138;2022-12-17T04:24:45;100009.44;;;0.07;88.68
76352;BME280;65179;47.786;19.138;2022-12-17T04:27:29;99994.06;;;0.00;88.62
76352;BME280;65179;47.786;19.138;2022-12-17T04:30:13;99990.72;;;-0.02;88.04
76352;BME280;65179;47.786;19.138;2022-12-17T04:32:57;99996.91;;;-0.01;88.21
76352;BME280;65179;47.786;19.138;2022-12-17T04:35:41;99992.72;;;-0.04;88.03
76352;BME280;65179;47.786;19.138;2022-12-17T04:38:25;99993.56;;;-0.03;88.11
76352;BME280;65179;47.786;19.138;2022-12-17T04:41:09;99994.06;;;-0.08;87.88
76352;BME280;65179;47.786;19.138;2022-12-17T04:43:53;99997.72;;;-0.09;88.19
76352;BME280;65179;47.786;19.138;2022-12-17T04:46:37;100001.38;;;-0.10;88.02
76352;BME280;65179;47.786;19.138;2022-12-17T04:49:21;100002.53;;;-0.12;87.86
76352;BME280;65179;47.786;19.138;2022-12-17T04:52:05;100007.88;;;-0.12;87.97
76352;BME280;65179;47.786;19.138;2022-12-17T04:54:49;100016.91;;;-0.13;87.85
76352;BME280;65179;47.786;19.138;2022-12-17T04:57:33;100028.38;;;-0.13;87.88
76352;BME280;65179;47.786;19.138;2022-12-17T05:00:18;100021.38;;;-0.14;87.81
76352;BME280;65179;47.786;19.138;2022-12-17T05:03:04;100023.22;;;-0.14;87.64
76352;BME280;65179;47.786;19.138;2022-12-17T05:05:48;100017.41;;;-0.10;87.63
76352;BME280;65179;47.786;19.138;2022-12-17T05:08:32;100013.37;;;-0.14;87.50
76352;BME280;65179;47.786;19.138;2022-12-17T05:11:17;100026.38;;;-0.19;87.36
76352;BME280;65179;47.786;19.138;2022-12-17T05:14:00;100029.19;;;-0.20;87.50
76352;BME280;65179;47.786;19.138;2022-12-17T05:16:45;100042.69;;;-0.22;87.72
76352;BME280;65179;47.786;19.138;2022-12-17T05:19:28;100064.03;;;-0.22;86.96
76352;BME280;65179;47.786;19.138;2022-12-17T05:22:12;100061.69;;;-0.25;86.76
76352;BME280;65179;47.786;19.138;2022-12-17T05:24:56;100064.66;;;-0.28;86.83
76352;BME280;65179;47.786;19.138;2022-12-17T05:27:40;100046.34;;;-0.31;86.64
76352;BME280;65179;47.786;19.138;2022-12-17T05:30:24;100056.31;;;-0.33;86.61
76352;BME280;65179;47.786;19.138;2022-12-17T05:33:08;100061.50;;;-0.31;86.54
76352;BME280;65179;47.786;19.138;2022-12-17T05:35:52;100064.47;;;-0.34;86.30
76352;BME280;65179;47.786;19.138;2022-12-17T05:38:36;100075.47;;;-0.37;85.97
76352;BME280;65179;47.786;19.138;2022-12-17T05:41:25;100071.13;;;-0.38;86.11
76352;BME280;65179;47.786;19.138;2022-12-17T05:44:08;100074.94;;;-0.41;86.21
76352;BME280;65179;47.786;19.138;2022-12-17T05:47:12;100073.94;;;-0.40;85.95
76352;BME280;65179;47.786;19.138;2022-12-17T05:49:56;100080.13;;;-0.39;85.88
76352;BME280;65179;47.786;19.138;2022-12-17T05:52:40;100083.28;;;-0.44;85.39
76352;BME280;65179;47.786;19.138;2022-12-17T05:55:24;100090.44;;;-0.44;85.32
76352;BME280;65179;47.786;19.138;2022-12-17T05:58:09;100093.09;;;-0.44;85.52
76352;BME280;65179;47.786;19.138;2022-12-17T06:00:58;100108.59;;;-0.48;85.18
76352;BME280;65179;47.786;19.138;2022-12-17T06:03:43;100118.25;;;-0.47;85.36
76352;BME280;65179;47.786;19.138;2022-12-17T06:06:27;100113.91;;;-0.48;85.33
76352;BME280;65179;47.786;19.138;2022-12-17T06:09:11;100119.25;;;-0.48;85.41
76352;BME280;65179;47.786;19.138;2022-12-17T06:11:55;100128.28;;;-0.41;85.92
76352;BME280;65179;47.786;19.138;2022-12-17T06:14:39;100112.28;;;-0.41;85.63
76352;BME280;65179;47.786;19.138;2022-12-17T06:17:23;100125.41;;;-0.47;85.24
76352;BME280;65179;47.786;19.138;2022-12-17T06:20:07;100122.59;;;-0.46;85.66
76352;BME280;65179;47.786;19.138;2022-12-17T06:23:08;100148.91;;;-0.51;85.24
76352;BME280;65179;47.786;19.138;2022-12-17T06:25:53;100145.59;;;-0.45;85.73
76352;BME280;65179;47.786;19.138;2022-12-17T06:28:37;100169.94;;;-0.48;85.22
76352;BME280;65179;47.786;19.138;2022-12-17T06:31:21;100175.94;;;-0.46;85.15
76352;BME280;65179;47.786;19.138;2022-12-17T06:34:05;100181.56;;;-0.49;84.82
76352;BME280;65179;47.786;19.138;2022-12-17T06:36:49;100179.06;;;-0.50;84.64
76352;BME280;65179;47.786;19.138;2022-12-17T06:39:33;100175.84;;;-0.54;84.63
76352;BME280;65179;47.786;19.138;2022-12-17T06:42:17;100183.03;;;-0.54;84.81
76352;BME280;65179;47.786;19.138;2022-12-17T06:45:01;100182.19;;;-0.55;84.93
76352;BME280;65179;47.786;19.138;2022-12-17T06:47:46;100190.72;;;-0.51;85.02
76352;BME280;65179;47.786;19.138;2022-12-17T06:50:30;100199.34;;;-0.57;84.67
76352;BME280;65179;47.786;19.138;2022-12-17T06:53:30;100204.38;;;-0.54;84.85
76352;BME280;65179;47.786;19.138;2022-12-17T06:56:14;100199.50;;;-0.59;84.75
76352;BME280;65179;47.786;19.138;2022-12-17T06:58:59;100199.63;;;-0.60;84.54
76352;BME280;65179;47.786;19.138;2022-12-17T07:01:43;100200.47;;;-0.60;84.63
76352;BME280;65179;47.786;19.138;2022-12-17T07:04:27;100204.16;;;-0.61;84.22
76352;BME280;65179;47.786;19.138;2022-12-17T07:07:11;100216.47;;;-0.60;84.30
76352;BME280;65179;47.786;19.138;2022-12-17T07:09:55;100220.00;;;-0.59;84.29
76352;BME280;65179;47.786;19.138;2022-12-17T07:12:39;100230.13;;;-0.63;84.24
76352;BME280;65179;47.786;19.138;2022-12-17T07:15:23;100227.59;;;-0.64;83.82
76352;BME280;65179;47.786;19.138;2022-12-17T07:18:07;100232.09;;;-0.65;83.47
76352;BME280;65179;47.786;19.138;2022-12-17T07:20:52;100239.81;;;-0.62;83.79
76352;BME280;65179;47.786;19.138;2022-12-17T07:23:36;100246.12;;;-0.63;83.49
76352;BME280;65179;47.786;19.138;2022-12-17T07:26:20;100252.16;;;-0.61;83.36
76352;BME280;65179;47.786;19.138;2022-12-17T07:29:04;100254.66;;;-0.59;83.19
76352;BME280;65179;47.786;19.138;2022-12-17T07:31:48;100265.16;;;-0.58;83.40
76352;BME280;65179;47.786;19.138;2022-12-17T07:34:32;100268.50;;;-0.56;83.23
76352;BME280;65179;47.786;19.138;2022-12-17T07:37:16;100274.69;;;-0.55;83.14
76352;BME280;65179;47.786;19.138;2022-12-17T07:40:00;100275.38;;;-0.53;83.19
76352;BME280;65179;47.786;19.138;2022-12-17T07:42:44;100268.50;;;-0.56;82.55
76352;BME280;65179;47.786;19.138;2022-12-17T07:45:28;100258.00;;;-0.57;82.50
76352;BME280;65179;47.786;19.138;2022-12-17T07:48:12;100279.06;;;-0.54;82.38
76352;BME280;65179;47.786;19.138;2022-12-17T07:50:56;100286.91;;;-0.53;82.36
76352;BME280;65179;47.786;19.138;2022-12-17T07:53:40;100296.72;;;-0.53;81.75
76352;BME280;65179;47.786;19.138;2022-12-17T07:56:24;100323.38;;;-0.53;81.57
76352;BME280;65179;47.786;19.138;2022-12-17T07:59:07;100319.59;;;-0.51;81.43
76352;BME280;65179;47.786;19.138;2022-12-17T08:01:51;100316.31;;;-0.45;82.41
76352;BME280;65179;47.786;19.138;2022-12-17T08:04:35;100320.78;;;-0.45;81.27
76352;BME280;65179;47.786;19.138;2022-12-17T08:07:19;100313.47;;;-0.43;81.30
76352;BME280;65179;47.786;19.138;2022-12-17T08:10:04;100310.97;;;-0.45;81.18
76352;BME280;65179;47.786;19.138;2022-12-17T08:12:56;100299.44;;;-0.45;81.06
76352;BME280;65179;47.786;19.138;2022-12-17T08:15:41;100317.16;;;-0.44;81.33
76352;BME280;65179;47.786;19.138;2022-12-17T08:18:25;100314.31;;;-0.43;81.15
76352;BME280;65179;47.786;19.138;2022-12-17T08:21:09;100327.97;;;-0.46;80.95
76352;BME280;65179;47.786;19.138;2022-12-17T08:23:53;100314.47;;;-0.44;81.22
76352;BME280;65179;47.786;19.138;2022-12-17T08:26:37;100330.50;;;-0.44;81.00
76352;BME280;65179;47.786;19.138;2022-12-17T08:29:21;100339.34;;;-0.44;81.14
76352;BME280;65179;47.786;19.138;2022-12-17T08:32:05;100333.69;;;-0.41;80.76
76352;BME280;65179;47.786;19.138;2022-12-17T08:34:49;100334.69;;;-0.42;80.84
76352;BME280;65179;47.786;19.138;2022-12-17T08:37:33;100332.69;;;-0.40;80.65
76352;BME280;65179;47.786;19.138;2022-12-17T08:40:17;100339.41;;;-0.36;80.87
76352;BME280;65179;47.786;19.138;2022-12-17T08:43:01;100333.22;;;-0.36;80.71
76352;BME280;65179;47.786;19.138;2022-12-17T08:45:50;100324.53;;;-0.38;80.45
76352;BME280;65179;47.786;19.138;2022-12-17T08:48:35;100323.41;;;-0.36;80.54
76352;BME280;65179;47.786;19.138;2022-12-17T08:51:19;100330.94;;;-0.31;80.46
76352;BME280;65179;47.786;19.138;2022-12-17T08:54:03;100344.81;;;-0.28;80.37
76352;BME280;65179;47.786;19.138;2022-12-17T08:56:47;100369.84;;;-0.29;80.48
76352;BME280;65179;47.786;19.138;2022-12-17T08:59:31;100373.47;;;-0.30;80.23
76352;BME280;65179;47.786;19.138;2022-12-17T09:02:15;100388.81;;;-0.32;79.88
76352;BME280;65179;47.786;19.138;2022-12-17T09:04:59;100404.13;;;-0.34;80.29
76352;BME280;65179;47.786;19.138;2022-12-17T09:07:45;100396.53;;;-0.29;80.60
76352;BME280;65179;47.786;19.138;2022-12-17T09:10:29;100386.13;;;-0.32;80.10
76352;BME280;65179;47.786;19.138;2022-12-17T09:13:13;100397.22;;;-0.27;80.15
76352;BME280;65179;47.786;19.138;2022-12-17T09:15:57;100378.88;;;-0.22;80.42
76352;BME280;65179;47.786;19.138;2022-12-17T09:18:41;100384.47;;;-0.15;79.52
76352;BME280;65179;47.786;19.138;2022-12-17T09:21:28;100394.00;;;-0.13;79.38
76352;BME280;65179;47.786;19.138;2022-12-17T09:24:12;100378.78;;;-0.03;79.22
76352;BME280;65179;47.786;19.138;2022-12-17T09:26:56;100379.00;;;0.04;79.84
76352;BME280;65179;47.786;19.138;2022-12-17T09:29:40;100376.56;;;0.11;79.50
76352;BME280;65179;47.786;19.138;2022-12-17T09:32:25;100381.34;;;0.07;78.50
76352;BME280;65179;47.786;19.138;2022-12-17T09:35:09;100385.84;;;0.07;78.64
76352;BME280;65179;47.786;19.138;2022-12-17T09:37:54;100402.56;;;0.09;78.77
76352;BME280;65179;47.786;19.138;2022-12-17T09:40:39;100411.16;;;0.03;78.58
76352;BME280;65179;47.786;19.138;2022-12-17T09:43:45;100403.25;;;0.11;78.72
76352;BME280;65179;47.786;19.138;2022-12-17T09:46:42;100405.25;;;0.09;78.61
76352;BME280;65179;47.786;19.138;2022-12-17T09:49:27;100410.88;;;0.06;78.01
76352;BME280;65179;47.786;19.138;2022-12-17T09:52:33;100425.53;;;0.02;78.32
76352;BME280;65179;47.786;19.138;2022-12-17T09:55:40;100411.03;;;0.22;78.56
76352;BME280;65179;47.786;19.138;2022-12-17T09:58:28;100422.12;;;0.35;77.81
76352;BME280;65179;47.786;19.138;2022-12-17T10:01:24;100423.44;;;0.74;77.01
76352;BME280;65179;47.786;19.138;2022-12-17T10:04:14;100417.06;;;0.67;75.55
76352;BME280;65179;47.786;19.138;2022-12-17T10:07:00;100426.56;;;0.87;75.30
76352;BME280;65179;47.786;19.138;2022-12-17T10:09:48;100435.81;;;1.26;73.64
76352;BME280;65179;47.786;19.138;2022-12-17T10:12:33;100437.72;;;1.08;74.21
76352;BME280;65179;47.786;19.138;2022-12-17T10:15:18;100432.00;;;1.03;74.07
76352;BME280;65179;47.786;19.138;2022-12-17T10:18:08;100439.28;;;1.19;74.22
76352;BME280;65179;47.786;19.138;2022-12-17T10:21:04;100438.31;;;1.28;72.96
76352;BME280;65179;47.786;19.138;2022-12-17T10:23:49;100439.38;;;1.43;73.16
76352;BME280;65179;47.786;19.138;2022-12-17T10:26:34;100438.69;;;1.75;72.00
76352;BME280;65179;47.786;19.138;2022-12-17T10:29:21;100438.13;;;2.05;71.33
76352;BME280;65179;47.786;19.138;2022-12-17T10:34:55;100460.66;;;1.86;71.83
76352;BME280;65179;47.786;19.138;2022-12-17T10:37:39;100460.16;;;1.91;71.01
76352;BME280;65179;47.786;19.138;2022-12-17T10:40:27;100468.47;;;2.46;69.75
76352;BME280;65179;47.786;19.138;2022-12-17T10:43:28;100477.78;;;2.09;70.14
76352;BME280;65179;47.786;19.138;2022-12-17T10:46:28;100475.62;;;2.21;71.00
76352;BME280;65179;47.786;19.138;2022-12-17T10:49:21;100465.47;;;2.89;67.54
76352;BME280;65179;47.786;19.138;2022-12-17T10:55:05;100481.25;;;2.60;68.50
76352;BME280;65179;47.786;19.138;2022-12-17T10:58:01;100488.37;;;3.40;65.97
76352;BME280;65179;47.786;19.138;2022-12-17T11:00:58;100487.87;;;3.83;64.33
76352;BME280;65179;47.786;19.138;2022-12-17T11:06:33;100508.91;;;4.63;62.73
76352;BME280;65179;47.786;19.138;2022-12-17T11:09:26;100518.84;;;4.86;60.89
76352;BME280;65179;47.786;19.138;2022-12-17T11:12:13;100517.09;;;4.93;60.88
76352;BME280;65179;47.786;19.138;2022-12-17T11:15:03;100529.41;;;4.11;62.58
76352;BME280;65179;47.786;19.138;2022-12-17T11:17:52;100532.88;;;3.81;63.17
76352;BME280;65179;47.786;19.138;2022-12-17T11:21:01;100532.37;;;4.47;62.67
76352;BME280;65179;47.786;19.138;2022-12-17T11:23:48;100547.78;;;4.61;61.56
76352;BME280;65179;47.786;19.138;2022-12-17T11:26:36;100532.19;;;4.56;61.75
76352;BME280;65179;47.786;19.138;2022-12-17T11:29:21;100553.69;;;4.26;61.93
76352;BME280;65179;47.786;19.138;2022-12-17T11:41:37;100587.94;;;2.56;67.02
76352;BME280;65179;47.786;19.138;2022-12-17T11:44:54;100587.91;;;2.48;67.30
76352;BME280;65179;47.786;19.138;2022-12-17T11:48:00;100587.19;;;2.30;67.86
76352;BME280;65179;47.786;19.138;2022-12-17T11:51:37;100592.75;;;1.95;68.98
76352;BME280;65179;47.786;19.138;2022-12-17T11:57:12;100596.94;;;1.72;69.59
76352;BME280;65179;47.786;19.138;2022-12-17T12:00:25;100596.44;;;1.68;70.44
76352;BME280;65179;47.786;19.138;2022-12-17T12:09:40;100604.31;;;1.44;70.71
76352;BME280;65179;47.786;19.138;2022-12-17T12:22:29;100627.88;;;1.40;71.65
76352;BME280;65179;47.786;19.138;2022-12-17T12:25:57;100644.28;;;1.45;71.34
76352;BME280;65179;47.786;19.138;2022-12-17T12:31:58;100640.47;;;1.30;71.72
76352;BME280;65179;47.786;19.138;2022-12-17T12:34:45;100633.97;;;1.33;71.40
76352;BME280;65179;47.786;19.138;2022-12-17T12:37:29;100615.94;;;1.17;71.44
76352;BME280;65179;47.786;19.138;2022-12-17T12:40:30;100627.03;;;1.22;72.09
76352;BME280;65179;47.786;19.138;2022-12-17T12:43:25;100636.03;;;1.21;71.29
76352;BME280;65179;47.786;19.138;2022-12-17T12:46:38;100650.94;;;1.24;71.39
76352;BME280;65179;47.786;19.138;2022-12-17T12:52:13;100652.81;;;1.23;71.21
76352;BME280;65179;47.786;19.138;2022-12-17T12:55:01;100638.03;;;1.37;71.20
76352;BME280;65179;47.786;19.138;2022-12-17T12:58:28;100655.22;;;1.34;71.26
76352;BME280;65179;47.786;19.138;2022-12-17T13:01:12;100659.19;;;1.30;71.17
76352;BME280;65179;47.786;19.138;2022-12-17T13:03:58;100653.50;;;1.25;71.43
76352;BME280;65179;47.786;19.138;2022-12-17T13:06:54;100656.06;;;1.17;71.26
76352;BME280;65179;47.786;19.138;2022-12-17T13:19:44;100692.47;;;1.10;71.39
76352;BME280;65179;47.786;19.138;2022-12-17T13:24:45;100701.87;;;1.14;71.61
76352;BME280;65179;47.786;19.138;2022-12-17T13:40:59;100756.03;;;1.16;71.89
76352;BME280;65179;47.786;19.138;2022-12-17T13:43:32;100755.72;;;1.19;71.28
76352;BME280;65179;47.786;19.138;2022-12-17T13:45:58;100756.56;;;1.20;70.79
76352;BME280;65179;47.786;19.138;2022-12-17T13:48:26;100751.00;;;1.31;71.31
76352;BME280;65179;47.786;19.138;2022-12-17T13:51:03;100774.72;;;1.43;70.40
76352;BME280;65179;47.786;19.138;2022-12-17T13:53:30;100792.97;;;1.30;70.75
76352;BME280;65179;47.786;19.138;2022-12-17T13:55:59;100793.97;;;1.29;70.87
76352;BME280;65179;47.786;19.138;2022-12-17T13:58:28;100785.63;;;1.15;70.43
76352;BME280;65179;47.786;19.138;2022-12-17T14:01:08;100789.31;;;1.04;70.71
76352;BME280;65179;47.786;19.138;2022-12-17T14:03:35;100793.00;;;1.03;71.04
76352;BME280;65179;47.786;19.138;2022-12-17T14:06:03;100786.28;;;0.99;71.13
76352;BME280;65179;47.786;19.138;2022-12-17T14:08:30;100783.63;;;0.90;71.21
76352;BME280;65179;47.786;19.138;2022-12-17T14:10:57;100788.91;;;0.82;71.61
76352;BME280;65179;47.786;19.138;2022-12-17T14:13:44;100798.06;;;0.69;71.40
76352;BME280;65179;47.786;19.138;2022-12-17T14:16:15;100808.62;;;0.71;71.15
76352;BME280;65179;47.786;19.138;2022-12-17T14:18:46;100804.84;;;0.73;71.17
76352;BME280;65179;47.786;19.138;2022-12-17T14:21:14;100806.78;;;0.71;71.07
76352;BME280;65179;47.786;19.138;2022-12-17T14:23:40;100809.94;;;0.67;70.92
76352;BME280;65179;47.786;19.138;2022-12-17T14:26:09;100815.97;;;0.69;71.56
76352;BME280;65179;47.786;19.138;2022-12-17T14:28:44;100822.19;;;0.60;71.05
76352;BME280;65179;47.786;19.138;2022-12-17T14:33:38;100837.09;;;0.53;71.36
76352;BME280;65179;47.786;19.138;2022-12-17T14:36:06;100839.06;;;0.51;71.56
76352;BME280;65179;47.786;19.138;2022-12-17T14:38:34;100851.31;;;0.44;71.72
76352;BME280;65179;47.786;19.138;2022-12-17T14:41:11;100857.81;;;0.32;71.78
76352;BME280;65179;47.786;19.138;2022-12-17T14:43:57;100863.16;;;0.32;71.63
76352;BME280;65179;47.786;19.138;2022-12-17T14:46:24;100876.25;;;0.25;71.82
76352;BME280;65179;47.786;19.138;2022-12-17T14:48:58;100872.31;;;0.29;72.07
76352;BME280;65179;47.786;19.138;2022-12-17T14:51:31;100877.37;;;0.23;72.04
76352;BME280;65179;47.786;19.138;2022-12-17T14:56:50;100900.97;;;0.18;72.72
76352;BME280;65179;47.786;19.138;2022-12-17T15:04:35;100912.78;;;0.06;73.07
76352;BME280;65179;47.786;19.138;2022-12-17T15:07:01;100920.38;;;0.00;72.87
76352;BME280;65179;47.786;19.138;2022-12-17T15:09:27;100916.88;;;0.00;73.05
76352;BME280;65179;47.786;19.138;2022-12-17T15:11:52;100926.00;;;-0.03;73.11
76352;BME280;65179;47.786;19.138;2022-12-17T15:14:18;100935.28;;;-0.07;73.30
76352;BME280;65179;47.786;19.138;2022-12-17T15:16:43;100946.38;;;-0.11;73.45
76352;BME280;65179;47.786;19.138;2022-12-17T15:19:10;100943.13;;;-0.15;73.45
76352;BME280;65179;47.786;19.138;2022-12-17T15:21:35;100943.66;;;-0.21;73.13
76352;BME280;65179;47.786;19.138;2022-12-17T15:24:01;100945.37;;;-0.20;73.52
76352;BME280;65179;47.786;19.138;2022-12-17T15:26:26;100962.06;;;-0.27;73.83
76352;BME280;65179;47.786;19.138;2022-12-17T15:28:52;100960.34;;;-0.38;74.17
76352;BME280;65179;47.786;19.138;2022-12-17T15:31:18;100968.09;;;-0.35;74.30
76352;BME280;65179;47.786;19.138;2022-12-17T15:33:43;100978.78;;;-0.35;74.23
76352;BME280;65179;47.786;19.138;2022-12-17T15:36:10;100976.09;;;-0.35;74.45
76352;BME280;65179;47.786;19.138;2022-12-17T15:38:36;100973.00;;;-0.40;74.48
76352;BME280;65179;47.786;19.138;2022-12-17T15:41:03;100973.13;;;-0.41;74.63
76352;BME280;65179;47.786;19.138;2022-12-17T15:43:48;100984.22;;;-0.46;74.97
76352;BME280;65179;47.786;19.138;2022-12-17T15:46:13;100989.78;;;-0.49;74.77
76352;BME280;65179;47.786;19.138;2022-12-17T15:48:39;100999.50;;;-0.48;74.88
76352;BME280;65179;47.786;19.138;2022-12-17T15:51:04;100991.75;;;-0.51;75.11
76352;BME280;65179;47.786;19.138;2022-12-17T15:53:30;101004.94;;;-0.49;75.38
76352;BME280;65179;47.786;19.138;2022-12-17T15:56:02;101001.31;;;-0.48;75.13
76352;BME280;65179;47.786;19.138;2022-12-17T15:58:28;100998.34;;;-0.55;75.48
76352;BME280;65179;47.786;19.138;2022-12-17T16:00:53;100994.53;;;-0.62;75.53
76352;BME280;65179;47.786;19.138;2022-12-17T16:03:19;101005.75;;;-0.58;75.43
76352;BME280;65179;47.786;19.138;2022-12-17T16:05:44;101000.56;;;-0.60;75.72
76352;BME280;65179;47.786;19.138;2022-12-17T16:08:10;101002.53;;;-0.62;75.79
76352;BME280;65179;47.786;19.138;2022-12-17T16:10:36;101014.44;;;-0.66;75.88
76352;BME280;65179;47.786;19.138;2022-12-17T16:13:01;101011.06;;;-0.68;76.06
76352;BME280;65179;47.786;19.138;2022-12-17T16:15:27;101014.69;;;-0.69;76.30
76352;BME280;65179;47.786;19.138;2022-12-17T16:17:53;101016.53;;;-0.69;76.30
76352;BME280;65179;47.786;19.138;2022-12-17T16:20:19;101032.53;;;-0.69;76.17
76352;BME280;65179;47.786;19.138;2022-12-17T16:22:44;101046.59;;;-0.67;75.95
76352;BME280;65179;47.786;19.138;2022-12-17T16:25:10;101049.50;;;-0.70;75.93
76352;BME280;65179;47.786;19.138;2022-12-17T16:27:36;101046.59;;;-0.67;76.11
76352;BME280;65179;47.786;19.138;2022-12-17T16:30:03;101052.47;;;-0.64;76.41
76352;BME280;65179;47.786;19.138;2022-12-17T16:32:28;101047.72;;;-0.60;76.32
76352;BME280;65179;47.786;19.138;2022-12-17T16:34:54;101045.19;;;-0.62;76.35
76352;BME280;65179;47.786;19.138;2022-12-17T16:37:19;101047.41;;;-0.67;76.01
76352;BME280;65179;47.786;19.138;2022-12-17T16:39:45;101055.81;;;-0.71;76.44
76352;BME280;65179;47.786;19.138;2022-12-17T16:42:10;101052.84;;;-0.78;76.41
76352;BME280;65179;47.786;19.138;2022-12-17T16:44:36;101055.75;;;-0.81;76.45
76352;BME280;65179;47.786;19.138;2022-12-17T16:47:02;101074.19;;;-0.78;76.50
76352;BME280;65179;47.786;19.138;2022-12-17T16:49:28;101070.50;;;-0.77;76.53
76352;BME280;65179;47.786;19.138;2022-12-17T16:51:55;101078.75;;;-0.80;76.75
76352;BME280;65179;47.786;19.138;2022-12-17T16:54:23;101084.84;;;-0.78;76.91
76352;BME280;65179;47.786;19.138;2022-12-17T16:56:50;101084.94;;;-0.80;76.82
76352;BME280;65179;47.786;19.138;2022-12-17T16:59:16;101094.19;;;-0.84;76.83
76352;BME280;65179;47.786;19.138;2022-12-17T17:01:44;101093.84;;;-0.90;76.91